CheckWX is a tool to help pilots better visualize weather data.  It is not intended as a substitute for an official pre-flight weather briefing.

18:46:56 UTC

EGPH METAR
Edinburgh Airport
Edinburgh, United Kingdom
Current

57 mins ago

EGPH 251750Z 23010KT 9999 SCT025 BKN037 07/05 Q1008
Observed
Jan-25 @ 17:50 UTC
Wind
  • 230° at 10 KTS
Visibility
10,000+ meters
Flight Rules
VFR
Cloud Levels
  • Scattered at 2,500' AGL
  • Broken at 3,700' AGL
Temperature
C / 45°F
Dewpoint
C / 41°F
Humidity
87%
Altimeter
29.76" Hg
Pressure
1007.92 hPa
Previous

1 hour ago

EGPH 251720Z 24007KT 210V280 9999 FEW025 BKN037 07/05 Q1008
Observed
Jan-25 @ 17:20 UTC
Wind
  • 240° at 7 KTS
Visibility
10,000+ meters
Flight Rules
VFR
Cloud Levels
  • Few at 2,500' AGL
  • Broken at 3,700' AGL
Temperature
C / 45°F
Dewpoint
C / 41°F
Humidity
87%
Altimeter
29.76" Hg
Pressure
1007.92 hPa
Previous

2 hours ago

EGPH 251650Z 23011KT 9999 FEW022 BKN028 07/05 Q1008
Observed
Jan-25 @ 16:50 UTC
Wind
  • 230° at 11 KTS
Visibility
10,000+ meters
Flight Rules
MVFR
Cloud Levels
  • Few at 2,200' AGL
  • Broken at 2,800' AGL
Temperature
C / 45°F
Dewpoint
C / 41°F
Humidity
87%
Altimeter
29.76" Hg
Pressure
1007.92 hPa